KLRD/LRD METAR and TAF weather

Enter ICAO airport designator
Station Type Date Time Source
KLRD METAR 2020/03/28 08:56 UTC NOAA

KLRD 280856Z AUTO 12008KT 9SM BKN017 25/21 A2967 RMK AO2 SLP043 T02500211 58005


Station Type Date Time Source
KLRD Decoded METAR 2020/03/28 08:56 UTC NOAA

Laredo, Laredo International Airport, TX, United States (KLRD) 27-32-37N 099-27-41W
Mar 28, 2020 - 04:56 AM EDT / 2020.03.28 0856 UTC
Wind: from the ESE (120 degrees) at 9 MPH (8 KT):0
Visibility: 9 mile(s):0
Sky conditions: mostly cloudy
Temperature: 77.0 F (25.0 C)
Dew Point: 70.0 F (21.1 C)
Relative Humidity: 78%
Pressure (altimeter): 29.67 in. Hg (1004 hPa)
Pressure tendency: 0.01 inches (0.5 hPa) lower than three hours ago
ob: KLRD 280856Z AUTO 12008KT 9SM BKN017 25/21 A2967 RMK AO2 SLP043 T02500211 58005
cycle: 9

Station Type Date Time Source
KLRD TAF 2020/03/28 08:34 UTC NOAA

TAF
AMD KLRD 280732Z 2808/2906 14008KT P6SM BKN020 OVC250
FM281400 36012G20KT P6SM FEW030 SCT150 BKN250
FM281600 35019G27KT P6SM BKN150 BKN250
FM282300 02012KT P6SM SCT250
FM290300 07006KT P6SM SKC

Example: see airport list